createdAt,value
2018-11-04T00:00:20.394Z,29.03
2018-11-04T00:02:51.859Z,28.43
2018-11-04T00:05:23.142Z,28.97
2018-11-04T00:07:54.116Z,27.43
2018-11-04T00:10:24.970Z,26.97
2018-11-04T00:12:55.973Z,26.23
2018-11-04T00:15:26.925Z,27.27
2018-11-04T00:17:57.879Z,26.37
2018-11-04T00:20:29.053Z,25.17
2018-11-04T00:22:59.998Z,24.47
2018-11-04T00:25:31.020Z,23.10
2018-11-04T00:28:01.978Z,24.07
2018-11-04T00:30:33.108Z,23.63
2018-11-04T00:33:04.161Z,22.80
2018-11-04T00:35:35.039Z,23.97
2018-11-04T00:38:06.052Z,22.97
2018-11-04T00:40:37.320Z,22.43
2018-11-04T00:43:08.384Z,24.13
2018-11-04T00:45:39.357Z,24.00
2018-11-04T00:48:10.383Z,23.30
2018-11-04T00:50:41.249Z,24.07
2018-11-04T00:53:12.613Z,23.63
2018-11-04T00:56:08.428Z,24.33
2018-11-04T00:58:39.924Z,24.27
2018-11-04T01:01:10.788Z,24.73
2018-11-04T01:03:42.432Z,23.77
2018-11-04T01:06:13.710Z,24.27
2018-11-04T01:08:44.664Z,24.83
2018-11-04T01:11:15.621Z,24.33
2018-11-04T01:13:46.521Z,24.17
2018-11-04T01:16:17.503Z,24.63
2018-11-04T01:18:48.409Z,25.73
2018-11-04T01:21:19.356Z,25.40
2018-11-04T01:23:50.366Z,23.03
2018-11-04T01:26:21.253Z,24.57
2018-11-04T01:28:52.274Z,24.13
2018-11-04T01:31:23.296Z,22.80
2018-11-04T01:33:54.197Z,22.80
2018-11-04T01:36:25.080Z,24.00
2018-11-04T01:38:56.412Z,23.43
2018-11-04T01:41:27.410Z,23.27
2018-11-04T01:43:58.773Z,21.03
2018-11-04T01:46:30.274Z,21.50
2018-11-04T01:49:01.197Z,21.60
2018-11-04T01:51:32.151Z,21.00
2018-11-04T01:54:03.002Z,20.43
2018-11-04T01:56:34.000Z,20.50
2018-11-04T01:59:05.192Z,19.77
2018-11-04T02:01:36.394Z,19.87
2018-11-04T02:04:07.706Z,19.20
2018-11-04T02:06:38.826Z,19.43
2018-11-04T02:09:11.786Z,18.83
2018-11-04T02:11:42.744Z,18.33
2018-11-04T02:14:13.730Z,17.33
2018-11-04T02:16:44.701Z,18.30
2018-11-04T02:19:15.624Z,16.77
2018-11-04T02:21:46.537Z,17.40
2018-11-04T02:24:17.791Z,17.43
2018-11-04T02:26:49.061Z,16.27
2018-11-04T02:29:19.922Z,16.60
2018-11-04T02:31:50.839Z,16.00
2018-11-04T02:34:22.225Z,15.90
2018-11-04T02:36:53.249Z,14.93
2018-11-04T02:39:24.476Z,15.30
2018-11-04T02:41:55.538Z,15.33
2018-11-04T02:44:26.443Z,15.27
2018-11-04T02:46:57.408Z,14.73
2018-11-04T02:49:28.372Z,15.07
2018-11-04T02:51:59.401Z,15.30
2018-11-04T02:54:30.352Z,15.20
2018-11-04T02:57:01.330Z,15.97
2018-11-04T02:59:32.339Z,15.60
2018-11-04T03:02:03.360Z,16.20
2018-11-04T03:04:34.655Z,14.47
2018-11-04T03:07:05.903Z,15.43
2018-11-04T03:09:36.822Z,14.50
2018-11-04T03:12:07.983Z,15.03
2018-11-04T03:14:39.367Z,15.03
2018-11-04T03:17:10.333Z,15.73
2018-11-04T03:19:41.631Z,15.63
2018-11-04T03:22:12.919Z,16.03
2018-11-04T03:24:44.635Z,15.53
2018-11-04T03:27:15.513Z,15.53
2018-11-04T03:29:46.675Z,15.90
2018-11-04T03:32:18.011Z,15.37
2018-11-04T03:34:48.915Z,16.47
2018-11-04T03:37:19.861Z,15.47
2018-11-04T03:39:50.748Z,16.27
2018-11-04T03:42:21.721Z,15.57
2018-11-04T03:44:52.665Z,16.60
2018-11-04T03:47:23.905Z,15.63
2018-11-04T03:49:54.861Z,16.20
2018-11-04T03:52:26.151Z,15.77
2018-11-04T03:54:57.466Z,16.83
2018-11-04T03:57:29.354Z,16.23
2018-11-04T04:00:00.363Z,16.00
2018-11-04T04:02:31.273Z,15.67
2018-11-04T04:05:02.569Z,15.83
2018-11-04T04:07:34.177Z,15.97
2018-11-04T04:10:05.951Z,15.07
2018-11-04T04:12:37.807Z,15.80
2018-11-04T04:15:10.921Z,15.73
2018-11-04T04:17:42.167Z,15.50
2018-11-04T04:20:13.320Z,15.13
2018-11-04T04:22:44.516Z,15.30
2018-11-04T04:25:15.964Z,14.87
2018-11-04T04:27:46.897Z,15.47
2018-11-04T04:30:18.172Z,15.70
2018-11-04T04:32:49.103Z,15.53
2018-11-04T04:35:19.945Z,15.90
2018-11-04T04:37:50.857Z,16.20
2018-11-04T04:40:22.475Z,15.73
2018-11-04T04:42:53.473Z,15.13
2018-11-04T04:45:24.961Z,16.03
2018-11-04T04:47:55.903Z,15.03
2018-11-04T04:50:27.195Z,16.00
2018-11-04T04:52:58.745Z,16.37
2018-11-04T04:55:30.117Z,17.00
2018-11-04T04:58:01.077Z,15.77
2018-11-04T05:00:31.920Z,16.40
2018-11-04T05:03:03.098Z,15.57
2018-11-04T05:05:34.299Z,17.23
2018-11-04T05:08:05.299Z,16.83
2018-11-04T05:10:36.491Z,15.30
2018-11-04T05:13:07.583Z,17.10
2018-11-04T05:15:39.261Z,15.40
2018-11-04T05:18:10.988Z,16.00
2018-11-04T05:20:42.159Z,16.23
2018-11-04T05:23:13.427Z,16.47
2018-11-04T05:25:45.011Z,16.63
2018-11-04T05:28:15.998Z,17.00
2018-11-04T05:30:47.132Z,17.30
2018-11-04T05:33:18.820Z,15.30
2018-11-04T05:35:49.698Z,15.20
2018-11-04T05:38:20.677Z,15.50
2018-11-04T05:40:51.819Z,16.70
2018-11-04T05:43:22.737Z,15.87
2018-11-04T05:45:54.247Z,16.93
2018-11-04T05:48:25.317Z,15.70
2018-11-04T05:50:56.475Z,15.37
2018-11-04T05:53:27.660Z,15.30
2018-11-04T05:55:58.619Z,16.23
2018-11-04T05:58:30.020Z,16.13
2018-11-04T06:01:01.041Z,16.60
2018-11-04T06:03:31.900Z,16.77
2018-11-04T06:06:02.736Z,15.23
2018-11-04T06:08:33.692Z,15.53
2018-11-04T06:11:04.619Z,15.83
2018-11-04T06:13:36.018Z,16.13
2018-11-04T06:16:07.635Z,15.07
2018-11-04T06:18:38.511Z,16.67
2018-11-04T06:21:09.405Z,15.53
2018-11-04T06:23:40.283Z,15.23
2018-11-04T06:26:11.137Z,16.50
2018-11-04T06:28:42.036Z,15.90
2018-11-04T06:31:13.122Z,16.13
2018-11-04T06:33:44.474Z,16.27
2018-11-04T06:36:15.590Z,16.50
2018-11-04T06:38:46.541Z,16.60
2018-11-04T06:41:17.705Z,17.07
2018-11-04T06:43:48.538Z,16.00
2018-11-04T06:46:19.962Z,17.87
2018-11-04T06:48:51.118Z,17.37
2018-11-04T06:51:22.143Z,16.97
2018-11-04T06:53:53.352Z,16.90
2018-11-04T06:56:24.827Z,17.27
2018-11-04T06:58:55.755Z,16.90
2018-11-04T07:01:27.121Z,17.33
2018-11-04T07:04:26.312Z,17.43
2018-11-04T07:06:57.262Z,16.60
2018-11-04T07:09:28.408Z,17.23
2018-11-04T07:11:59.552Z,15.90
2018-11-04T07:14:30.435Z,16.47
2018-11-04T07:17:04.530Z,15.07
2018-11-04T07:19:35.399Z,15.77
2018-11-04T07:22:06.732Z,16.13
2018-11-04T07:24:37.701Z,15.97
2018-11-04T07:27:08.983Z,15.30
2018-11-04T07:29:40.106Z,15.30
2018-11-04T07:32:10.968Z,15.23
2018-11-04T07:34:41.836Z,15.53
2018-11-04T07:37:12.774Z,14.37
2018-11-04T07:39:43.996Z,16.00
2018-11-04T07:42:15.248Z,14.97
2018-11-04T07:44:46.131Z,14.87
2018-11-04T07:47:17.253Z,14.97
2018-11-04T07:49:48.348Z,15.00
2018-11-04T07:52:19.711Z,15.23
2018-11-04T07:54:50.955Z,15.50
2018-11-04T07:57:21.878Z,14.90
2018-11-04T07:59:52.825Z,14.10
2018-11-04T08:02:23.913Z,14.90
2018-11-04T08:04:54.776Z,13.87
2018-11-04T08:07:25.888Z,14.10
2018-11-04T08:09:57.021Z,13.33
2018-11-04T08:12:28.126Z,13.67
2018-11-04T08:14:59.772Z,13.83
2018-11-04T08:17:30.623Z,14.93
2018-11-04T08:20:01.512Z,13.67
2018-11-04T08:22:32.822Z,12.50
2018-11-04T08:25:04.188Z,13.30
2018-11-04T08:27:35.333Z,12.30
2018-11-04T08:30:07.597Z,11.87
2018-11-04T08:32:39.694Z,11.93
2018-11-04T08:35:10.587Z,12.40
2018-11-04T08:37:41.425Z,12.60
2018-11-04T08:40:12.342Z,12.17
2018-11-04T08:42:43.146Z,12.20
2018-11-04T08:45:14.320Z,12.50
2018-11-04T08:47:45.567Z,12.73
2018-11-04T08:50:16.802Z,12.70
2018-11-04T08:52:47.818Z,11.50
2018-11-04T08:55:18.749Z,11.33
2018-11-04T08:57:49.926Z,10.97
2018-11-04T09:00:20.781Z,11.67
2018-11-04T09:02:51.834Z,11.70
2018-11-04T09:05:22.713Z,11.80
2018-11-04T09:07:53.543Z,12.47
2018-11-04T09:10:24.394Z,13.00
2018-11-04T09:12:55.266Z,12.33
2018-11-04T09:15:26.119Z,13.17
2018-11-04T09:17:56.969Z,13.63
2018-11-04T09:20:27.852Z,13.10
2018-11-04T09:22:58.702Z,12.60
2018-11-04T09:25:29.564Z,13.57
2018-11-04T09:28:00.498Z,12.67
2018-11-04T09:30:31.944Z,12.13
2018-11-04T09:33:03.074Z,12.97
2018-11-04T09:35:34.573Z,13.13
2018-11-04T09:38:05.542Z,11.73
2018-11-04T09:40:37.088Z,12.20
2018-11-04T09:43:08.100Z,12.17
2018-11-04T09:45:38.947Z,12.80
2018-11-04T09:48:10.054Z,12.63
2018-11-04T09:50:41.153Z,13.00
2018-11-04T09:53:12.291Z,12.83
2018-11-04T09:55:43.577Z,12.97
2018-11-04T09:58:14.432Z,13.67
2018-11-04T10:00:45.309Z,14.67
2018-11-04T10:03:16.478Z,14.47
2018-11-04T10:05:47.342Z,13.70
2018-11-04T10:08:18.755Z,13.23
2018-11-04T10:10:49.868Z,13.03
2018-11-04T10:13:20.877Z,14.17
2018-11-04T10:15:51.706Z,15.30
2018-11-04T10:18:22.545Z,16.10
2018-11-04T10:20:54.089Z,17.27
2018-11-04T10:23:24.665Z,16.30
2018-11-04T10:25:55.685Z,16.60
2018-11-04T10:28:26.579Z,17.37
2018-11-04T10:30:57.787Z,17.87
2018-11-04T10:33:28.665Z,18.40
2018-11-04T10:35:59.513Z,21.03
2018-11-04T10:38:30.422Z,20.07
2018-11-04T10:41:01.277Z,21.90
2018-11-04T10:43:32.395Z,22.17
2018-11-04T10:46:03.265Z,22.00
2018-11-04T10:48:34.236Z,22.20
2018-11-04T10:51:05.307Z,21.67
2018-11-04T10:53:37.030Z,20.47
2018-11-04T10:56:08.868Z,20.97
2018-11-04T10:58:39.760Z,20.47
2018-11-04T11:01:11.786Z,21.97
2018-11-04T11:03:43.103Z,23.63
2018-11-04T11:06:14.278Z,22.60
2018-11-04T11:08:45.217Z,23.77
2018-11-04T11:11:16.290Z,23.13
2018-11-04T11:13:47.505Z,23.43
2018-11-04T11:16:18.599Z,22.67
2018-11-04T11:18:49.508Z,22.90
2018-11-04T11:21:20.433Z,21.53
2018-11-04T11:23:51.283Z,21.50
2018-11-04T11:26:22.386Z,19.90
2018-11-04T11:28:53.535Z,17.13
2018-11-04T11:31:24.621Z,17.37
2018-11-04T11:33:55.502Z,18.90
2018-11-04T11:36:26.356Z,19.13
2018-11-04T11:38:57.457Z,21.10
2018-11-04T11:41:28.357Z,24.77
2018-11-04T11:43:59.463Z,22.13
2018-11-04T11:46:30.335Z,19.73
2018-11-04T11:49:01.307Z,19.63
2018-11-04T11:51:32.219Z,15.87
2018-11-04T11:54:03.366Z,14.90
2018-11-04T11:56:34.427Z,15.20
2018-11-04T11:59:05.365Z,14.93
2018-11-04T12:01:36.482Z,15.63
2018-11-04T12:04:07.457Z,15.30
2018-11-04T12:06:38.285Z,16.57
2018-11-04T12:09:09.971Z,17.53
2018-11-04T12:11:40.874Z,18.70
2018-11-04T12:14:11.740Z,17.80
2018-11-04T12:16:42.842Z,17.53
2018-11-04T12:19:13.719Z,20.30
2018-11-04T12:21:44.599Z,20.57
2018-11-04T12:24:15.658Z,20.47
2018-11-04T12:26:46.492Z,21.60
2018-11-04T12:29:17.337Z,19.93
2018-11-04T12:31:48.165Z,19.93
2018-11-04T12:34:19.009Z,19.73
2018-11-04T12:36:50.151Z,17.70
2018-11-04T12:39:21.073Z,17.70
2018-11-04T12:41:52.262Z,16.43
2018-11-04T12:44:23.488Z,16.90
2018-11-04T12:46:54.621Z,17.47
2018-11-04T12:49:25.568Z,17.27
2018-11-04T12:51:56.731Z,17.03
2018-11-04T12:54:28.075Z,16.93
2018-11-04T12:56:59.251Z,16.10
2018-11-04T12:59:30.347Z,15.83
2018-11-04T13:02:01.473Z,16.03
2018-11-04T13:04:33.579Z,17.00
2018-11-04T13:07:04.873Z,18.53
2018-11-04T13:09:35.703Z,18.23
2018-11-04T13:12:06.599Z,17.27
2018-11-04T13:14:37.750Z,18.70
2018-11-04T13:17:08.804Z,17.67
2018-11-04T13:19:39.964Z,16.40
2018-11-04T13:22:11.423Z,15.70
2018-11-04T13:24:42.291Z,14.57
2018-11-04T13:27:13.272Z,12.73
2018-11-04T13:29:44.509Z,13.13
2018-11-04T13:32:15.746Z,13.27
2018-11-04T13:34:46.878Z,13.00
2018-11-04T13:37:17.797Z,12.63
2018-11-04T13:39:49.169Z,11.83
2018-11-04T13:42:20.232Z,12.23
2018-11-04T13:44:51.480Z,12.73
2018-11-04T13:47:22.604Z,13.23
2018-11-04T13:49:53.537Z,12.40
2018-11-04T13:52:24.343Z,13.27
2018-11-04T13:54:55.479Z,13.40
2018-11-04T13:57:26.590Z,12.63
2018-11-04T13:59:57.460Z,13.27
2018-11-04T14:02:28.553Z,13.07
2018-11-04T14:04:59.493Z,11.93
2018-11-04T14:07:30.537Z,12.50
2018-11-04T14:10:01.378Z,12.70
2018-11-04T14:12:32.248Z,12.97
2018-11-04T14:15:03.068Z,12.00
2018-11-04T14:17:33.969Z,13.43
2018-11-04T14:20:04.833Z,12.83
2018-11-04T14:22:36.461Z,12.80
2018-11-04T14:25:08.324Z,13.43
2018-11-04T14:27:39.366Z,12.63
2018-11-04T14:30:13.202Z,13.80
2018-11-04T14:32:44.396Z,14.90
2018-11-04T14:35:15.500Z,18.30
2018-11-04T14:37:47.139Z,19.27
2018-11-04T14:40:17.992Z,19.63
2018-11-04T14:42:48.845Z,19.13
2018-11-04T14:45:20.016Z,16.00
2018-11-04T14:47:50.860Z,16.83
2018-11-04T14:50:22.020Z,15.70
2018-11-04T14:52:52.956Z,14.43
2018-11-04T14:55:24.052Z,14.50
2018-11-04T14:57:55.423Z,14.27
2018-11-04T15:00:26.681Z,13.30
2018-11-04T15:02:57.599Z,13.53
2018-11-04T15:05:28.780Z,13.33
2018-11-04T15:07:59.617Z,13.83
2018-11-04T15:10:30.480Z,13.57
2018-11-04T15:13:01.419Z,12.80
2018-11-04T15:15:32.562Z,13.37
2018-11-04T15:18:03.440Z,13.17
2018-11-04T15:20:34.891Z,12.57
2018-11-04T15:23:05.813Z,12.93
2018-11-04T15:25:36.668Z,13.33
2018-11-04T15:28:07.899Z,13.23
2018-11-04T15:30:39.021Z,13.40
2018-11-04T15:33:09.903Z,13.20
2018-11-04T15:35:41.170Z,13.67
2018-11-04T15:38:12.844Z,12.80
2018-11-04T15:40:43.849Z,13.87
2018-11-04T15:43:14.523Z,13.47
2018-11-04T15:45:45.447Z,14.30
2018-11-04T15:48:16.536Z,14.30
2018-11-04T15:50:48.131Z,13.93
2018-11-04T15:53:19.299Z,14.07
2018-11-04T15:55:50.494Z,13.80
2018-11-04T15:58:22.029Z,15.47
2018-11-04T16:00:52.862Z,14.83
2018-11-04T16:03:23.739Z,14.27
2018-11-04T16:05:55.248Z,15.27
2018-11-04T16:08:26.311Z,15.20
2018-11-04T16:10:57.540Z,15.17
2018-11-04T16:13:28.694Z,15.10
2018-11-04T16:16:00.213Z,15.93
2018-11-04T16:18:31.624Z,14.87
2018-11-04T16:21:02.801Z,14.60
2018-11-04T16:23:33.663Z,15.47
2018-11-04T16:26:04.576Z,15.87
2018-11-04T16:28:35.519Z,16.30
2018-11-04T16:31:06.375Z,16.80
2018-11-04T16:33:37.242Z,15.77
2018-11-04T16:36:08.162Z,17.03
2018-11-04T16:38:39.019Z,16.50
2018-11-04T16:41:10.315Z,16.87
2018-11-04T16:43:41.564Z,16.23
2018-11-04T16:46:12.352Z,16.37
2018-11-04T16:48:43.203Z,16.43
2018-11-04T16:51:14.208Z,16.67
2018-11-04T16:53:45.726Z,16.03
2018-11-04T16:56:16.731Z,16.67
2018-11-04T16:58:47.962Z,16.03
2018-11-04T17:01:19.203Z,17.10
2018-11-04T17:03:50.138Z,16.57
2018-11-04T17:06:20.968Z,16.77
2018-11-04T17:08:52.468Z,18.03
2018-11-04T17:11:24.189Z,17.77
2018-11-04T17:13:55.656Z,18.53
2018-11-04T17:16:26.830Z,18.33
2018-11-04T17:18:57.727Z,18.23
2018-11-04T17:21:28.825Z,19.10
2018-11-04T17:23:59.943Z,17.80
2018-11-04T17:26:30.796Z,18.90
2018-11-04T17:29:02.070Z,19.33
2018-11-04T17:31:33.513Z,19.87
2018-11-04T17:34:04.368Z,20.50
2018-11-04T17:36:35.713Z,20.57
2018-11-04T17:39:09.205Z,20.90
2018-11-04T17:41:40.517Z,21.27
2018-11-04T17:44:11.714Z,22.53
2018-11-04T17:46:42.563Z,22.13
2018-11-04T17:49:13.688Z,22.50
2018-11-04T17:51:44.569Z,22.63
2018-11-04T17:54:15.710Z,22.50
2018-11-04T17:56:47.198Z,21.97
2018-11-04T17:59:18.829Z,22.93
2018-11-04T18:01:50.363Z,23.20
2018-11-04T18:04:21.178Z,24.47
2018-11-04T18:06:52.720Z,25.63
2018-11-04T18:09:24.091Z,26.00
2018-11-04T18:11:55.602Z,25.77
2018-11-04T18:14:26.546Z,26.70
2018-11-04T18:16:57.403Z,26.77
2018-11-04T18:19:28.260Z,27.43
2018-11-04T18:21:59.374Z,28.63
2018-11-04T18:24:30.469Z,28.20
2018-11-04T18:27:01.617Z,26.93
2018-11-04T18:29:32.443Z,28.37
2018-11-04T18:32:03.562Z,27.40
2018-11-04T18:34:34.438Z,28.67
2018-11-04T18:37:05.304Z,28.90
2018-11-04T18:39:36.156Z,30.37
2018-11-04T18:42:07.903Z,28.63
2018-11-04T18:44:39.236Z,28.13
2018-11-04T18:47:10.831Z,29.13
2018-11-04T18:49:42.494Z,28.60
2018-11-04T18:52:14.929Z,28.37
2018-11-04T18:54:45.722Z,30.80
2018-11-04T18:57:16.620Z,29.33
2018-11-04T18:59:47.858Z,30.33
2018-11-04T19:02:18.734Z,30.83
2018-11-04T19:04:49.960Z,30.43
2018-11-04T19:07:21.066Z,31.57
2018-11-04T19:09:52.528Z,29.13
2018-11-04T19:12:23.669Z,31.43
2018-11-04T19:14:54.819Z,31.07
2018-11-04T19:17:25.716Z,31.50
2018-11-04T19:19:56.568Z,31.40
2018-11-04T19:22:27.693Z,32.00
2018-11-04T19:24:59.242Z,30.00
2018-11-04T19:27:30.116Z,31.73
2018-11-04T19:30:00.989Z,32.53
2018-11-04T19:32:31.907Z,31.17
2018-11-04T19:35:02.824Z,30.77
2018-11-04T19:37:34.096Z,30.20
2018-11-04T19:40:05.181Z,31.33
2018-11-04T19:42:36.546Z,32.77
2018-11-04T19:45:07.859Z,32.17
2018-11-04T19:47:39.225Z,32.90
2018-11-04T19:50:12.410Z,33.30
2018-11-04T19:52:43.601Z,32.87
2018-11-04T19:55:14.743Z,33.33
2018-11-04T19:57:45.603Z,33.67
2018-11-04T20:00:16.809Z,33.87
2018-11-04T20:02:47.682Z,35.30
2018-11-04T20:05:18.604Z,35.10
2018-11-04T20:07:49.399Z,36.97
2018-11-04T20:10:21.043Z,34.90
2018-11-04T20:13:08.857Z,35.33
2018-11-04T20:15:39.702Z,35.53
2018-11-04T20:18:41.091Z,35.63
2018-11-04T20:21:11.951Z,37.43
2018-11-04T20:23:43.079Z,36.53
2018-11-04T20:26:15.631Z,37.00
2018-11-04T20:28:46.734Z,35.67
2018-11-04T20:31:35.400Z,37.50
2018-11-04T20:34:06.273Z,39.47
2018-11-04T20:36:37.499Z,37.23
2018-11-04T20:39:38.327Z,37.93
2018-11-04T20:42:09.592Z,38.43
2018-11-04T20:44:48.517Z,41.17
2018-11-04T20:47:19.356Z,39.57
2018-11-04T20:50:07.360Z,39.00
2018-11-04T20:52:38.251Z,38.33
2018-11-04T20:55:09.213Z,40.43
2018-11-04T20:57:42.369Z,42.37
2018-11-04T21:00:14.303Z,38.40
2018-11-04T21:02:45.184Z,39.47
2018-11-04T21:05:16.511Z,39.80
2018-11-04T21:07:47.408Z,39.60
2018-11-04T21:10:18.873Z,38.77
2018-11-04T21:12:49.964Z,39.00
2018-11-04T21:15:20.891Z,42.73
2018-11-04T21:17:51.731Z,42.07
2018-11-04T21:20:22.577Z,42.40
2018-11-04T21:22:53.869Z,44.67
2018-11-04T21:25:25.191Z,43.73
2018-11-04T21:27:55.966Z,43.90
2018-11-04T21:30:26.733Z,42.13
2018-11-04T21:32:57.601Z,42.93
2018-11-04T21:35:29.126Z,41.47
2018-11-04T21:38:00.020Z,41.57
2018-11-04T21:40:30.842Z,43.33
2018-11-04T21:43:02.089Z,43.50
2018-11-04T21:45:32.965Z,43.17
2018-11-04T21:48:03.841Z,41.67
2018-11-04T21:50:35.090Z,43.17
2018-11-04T21:53:06.277Z,41.60
2018-11-04T21:55:37.352Z,42.20
2018-11-04T21:58:15.703Z,42.03
2018-11-04T22:00:46.557Z,44.47
2018-11-04T22:03:17.811Z,43.93
2018-11-04T22:05:49.094Z,43.27
2018-11-04T22:08:20.225Z,43.73
2018-11-04T22:10:51.074Z,43.90
2018-11-04T22:13:21.940Z,45.07
2018-11-04T22:15:52.855Z,45.20
2018-11-04T22:18:23.919Z,43.93
2018-11-04T22:20:54.757Z,46.50
2018-11-04T22:23:25.636Z,46.27
2018-11-04T22:25:56.492Z,45.67
2018-11-04T22:28:27.781Z,45.37
2018-11-04T22:30:58.673Z,45.03
2018-11-04T22:33:29.605Z,45.53
2018-11-04T22:36:00.485Z,46.70
2018-11-04T22:38:42.339Z,46.97
2018-11-04T22:41:13.244Z,45.20
2018-11-04T22:43:44.235Z,45.97
2018-11-04T22:46:15.078Z,43.20
2018-11-04T22:48:46.307Z,45.37
2018-11-04T22:51:17.839Z,45.10
2018-11-04T22:53:48.965Z,46.17
2018-11-04T22:56:19.866Z,45.70
2018-11-04T22:58:50.721Z,44.77
2018-11-04T23:01:22.461Z,47.50
2018-11-04T23:03:53.622Z,44.80
2018-11-04T23:06:24.799Z,47.57
2018-11-04T23:08:55.985Z,46.87
2018-11-04T23:11:27.230Z,46.00
2018-11-04T23:13:58.118Z,45.70
2018-11-04T23:16:28.949Z,44.00
2018-11-04T23:19:00.179Z,43.93
2018-11-04T23:21:31.022Z,46.77
2018-11-04T23:24:01.881Z,44.73
2018-11-04T23:26:32.782Z,45.10
2018-11-04T23:29:03.863Z,47.37
2018-11-04T23:31:35.513Z,46.13
2018-11-04T23:34:06.363Z,46.17
2018-11-04T23:36:37.196Z,46.67
2018-11-04T23:39:09.964Z,48.67
2018-11-04T23:41:41.109Z,47.93
2018-11-04T23:44:11.988Z,45.10
2018-11-04T23:46:43.388Z,46.27
2018-11-04T23:49:14.555Z,47.20
2018-11-04T23:51:46.016Z,45.07
2018-11-04T23:54:16.966Z,46.63
2018-11-04T23:56:47.847Z,48.10
2018-11-04T23:59:19.450Z,46.07
